Time;durP1;ratioP1;P1;durP2;ratioP2;P2;SDS_P1;SDS_P2;PMS_P1;PMS_P2;Temp;Humidity;BMP_temperature;BMP_pressure;BME280_temperature;BME280_humidity;BME280_pressure;Samples;Min_cycle;Max_cycle;Signal;HPM_P1;HPM_P2
2023/05/25 00:00:18;;;;;;;5.03;2.72;;;;;;;7.23;56.99;102585.28;5075510;28;20036;-71
2023/05/25 00:02:45;;;;;;;9.15;3.15;;;;;;;7.30;56.77;102598.28;5064980;27;20051;-71
2023/05/25 00:05:11;;;;;;;20.25;4.45;;;;;;;7.18;57.06;102592.22;5083470;28;20023;-73
2023/05/25 00:07:39;;;;;;;10.93;3.28;;;;;;;7.24;57.01;102598.25;5071723;27;20456;-70
2023/05/25 00:10:05;;;;;;;12.23;3.42;;;;;;;7.29;56.65;102593.94;5077071;28;20055;-71
2023/05/25 00:12:32;;;;;;;9.90;3.28;;;;;;;7.29;56.71;102595.69;5072142;27;20040;-71
2023/05/25 00:14:57;;;;;;;14.02;4.10;;;;;;;7.22;56.77;102587.00;5066719;28;20035;-70
2023/05/25 00:17:23;;;;;;;12.88;3.72;;;;;;;7.17;57.05;102591.31;5077324;27;20031;-71
2023/05/25 00:19:49;;;;;;;9.50;3.03;;;;;;;7.09;57.11;102593.06;5079999;27;20036;-72
2023/05/25 00:22:17;;;;;;;7.07;2.92;;;;;;;7.12;57.03;102593.06;5076042;27;20392;-70
2023/05/25 00:24:45;;;;;;;14.25;2.97;;;;;;;7.16;57.26;102600.00;5076326;27;20035;-72
2023/05/25 00:27:10;;;;;;;15.43;3.75;;;;;;;7.19;57.01;102600.00;5082048;28;20036;-71
2023/05/25 00:29:36;;;;;;;8.40;3.13;;;;;;;7.14;56.77;102591.31;5077390;27;20040;-71
2023/05/25 00:32:04;;;;;;;9.77;3.63;;;;;;;7.08;56.57;102591.31;5082062;28;20039;-72
2023/05/25 00:34:32;;;;;;;8.63;4.15;;;;;;;7.08;57.03;102588.72;5084491;27;20036;-73
2023/05/25 00:37:00;;;;;;;15.63;4.22;;;;;;;7.09;57.10;102595.66;5110952;27;20372;-74
2023/05/25 00:39:28;;;;;;;7.70;4.28;;;;;;;7.11;57.00;102601.72;5077362;27;20354;-75
2023/05/25 00:42:01;;;;;;;7.13;2.97;;;;;;;7.12;56.70;102598.25;5079138;27;20062;-69
2023/05/25 00:44:26;;;;;;;9.77;3.50;;;;;;;7.11;56.92;102599.13;5076489;27;20200;-74
2023/05/25 00:46:53;;;;;;;10.00;4.07;;;;;;;7.05;56.87;102594.78;5079267;28;21565;-74
2023/05/25 00:49:23;;;;;;;15.65;3.63;;;;;;;7.04;56.59;102593.06;5080865;27;20036;-74
2023/05/25 00:51:51;;;;;;;11.75;3.80;;;;;;;7.03;56.61;102593.03;5077948;28;20392;-74
2023/05/25 00:54:18;;;;;;;13.98;3.53;;;;;;;7.07;56.74;102594.78;5076533;28;20036;-72
2023/05/25 00:57:01;;;;;;;6.50;3.65;;;;;;;7.02;56.67;102597.38;5076937;28;20027;-73
2023/05/25 00:59:39;;;;;;;13.40;2.95;;;;;;;6.97;56.81;102595.63;5078013;27;20063;-73
2023/05/25 01:02:10;;;;;;;11.10;2.85;;;;;;;6.95;56.79;102597.34;5082303;28;20039;-75
2023/05/25 01:04:39;;;;;;;12.25;3.65;;;;;;;6.90;56.66;102597.31;5086703;27;20134;-73
2023/05/25 01:07:11;;;;;;;5.72;2.75;;;;;;;6.87;56.67;102593.00;5078451;28;20062;-72
2023/05/25 01:09:43;;;;;;;11.93;3.47;;;;;;;6.91;56.63;102592.16;5079653;27;20044;-72
2023/05/25 01:12:14;;;;;;;9.00;3.47;;;;;;;6.83;56.89;102591.25;5078763;28;20219;-72
2023/05/25 01:14:40;;;;;;;11.88;4.18;;;;;;;6.85;56.98;102588.66;5081126;28;20107;-72
2023/05/25 01:17:08;;;;;;;12.05;4.05;;;;;;;6.81;57.04;102595.56;5080639;28;20063;-72
2023/05/25 01:19:39;;;;;;;7.70;3.40;;;;;;;6.86;56.53;102591.28;5074932;27;20039;-72
2023/05/25 01:22:26;;;;;;;3.47;2.20;;;;;;;6.83;56.94;102596.44;5079302;28;21078;-72
2023/05/25 01:24:57;;;;;;;13.07;3.60;;;;;;;6.80;56.71;102591.25;5060212;28;20081;-72
2023/05/25 01:27:32;;;;;;;8.98;3.22;;;;;;;6.79;56.81;102589.50;5038672;28;20028;-72
2023/05/25 01:30:02;;;;;;;14.32;5.45;;;;;;;6.75;56.68;102592.94;5058581;28;20032;-72
2023/05/25 01:32:31;;;;;;;9.43;4.13;;;;;;;6.74;56.51;102598.16;5055008;28;20028;-72
2023/05/25 01:34:57;;;;;;;12.63;3.90;;;;;;;6.67;56.96;102602.47;5073801;28;20047;-73
2023/05/25 01:37:25;;;;;;;8.75;3.38;;;;;;;6.65;57.09;102606.78;5047406;28;20417;-71
2023/05/25 01:39:50;;;;;;;12.93;4.35;;;;;;;6.57;57.24;102603.25;5090604;27;20030;-72
2023/05/25 01:42:16;;;;;;;10.80;4.05;;;;;;;6.55;57.11;102604.97;5055058;28;20064;-73
2023/05/25 01:44:41;;;;;;;12.70;4.10;;;;;;;6.54;57.09;102600.66;5056857;28;20027;-72
2023/05/25 01:47:27;;;;;;;16.80;4.78;;;;;;;6.54;57.03;102598.94;5074109;28;20051;-72
2023/05/25 01:50:15;;;;;;;10.70;3.80;;;;;;;6.52;57.12;102604.97;5056113;28;20562;-73
2023/05/25 01:52:47;;;;;;;9.77;3.88;;;;;;;6.57;57.04;102600.66;5055629;28;20563;-72
2023/05/25 01:55:20;;;;;;;16.58;4.53;;;;;;;6.53;57.03;102609.31;5071913;27;20043;-77
2023/05/25 01:57:49;;;;;;;7.72;3.42;;;;;;;6.52;57.11;102604.97;5054910;27;20055;-76
2023/05/25 02:00:16;;;;;;;8.65;3.35;;;;;;;6.56;56.93;102609.34;5057199;28;20349;-76
2023/05/25 02:02:44;;;;;;;9.25;3.60;;;;;;;6.48;57.37;102609.28;5085173;27;20140;-70
2023/05/25 02:05:12;;;;;;;7.97;3.72;;;;;;;6.49;57.00;102609.31;5071196;28;20511;-73
2023/05/25 02:07:40;;;;;;;9.77;3.78;;;;;;;6.50;57.26;102616.22;5074978;28;20058;-73
2023/05/25 02:10:06;;;;;;;14.98;3.70;;;;;;;6.47;57.48;102603.22;5081503;28;20480;-70
2023/05/25 02:12:35;;;;;;;11.57;4.95;;;;;;;6.47;57.63;102612.75;5075376;27;20042;-73
2023/05/25 02:15:00;;;;;;;10.65;4.00;;;;;;;6.47;57.38;102613.63;5081413;28;20393;-73
2023/05/25 02:17:26;;;;;;;8.70;4.00;;;;;;;6.44;57.68;102613.63;5075549;27;20031;-76
2023/05/25 02:19:53;;;;;;;8.23;4.03;;;;;;;6.44;57.56;102607.53;5078529;28;20031;-72
2023/05/25 02:22:20;;;;;;;8.23;4.40;;;;;;;6.41;57.52;102605.78;5106364;27;20023;-72
2023/05/25 02:24:45;;;;;;;14.10;4.55;;;;;;;6.46;57.22;102604.09;5074854;28;20035;-71
2023/05/25 02:27:11;;;;;;;6.95;3.90;;;;;;;6.41;57.37;102597.13;5080452;28;20552;-72
2023/05/25 02:29:40;;;;;;;8.73;3.75;;;;;;;6.45;57.17;102604.94;5096354;27;20449;-72
2023/05/25 02:32:05;;;;;;;16.27;3.97;;;;;;;6.41;57.23;102608.38;5109725;27;20151;-72
2023/05/25 02:34:31;;;;;;;12.63;4.57;;;;;;;6.37;57.57;102601.44;5091006;27;20032;-72
2023/05/25 02:36:56;;;;;;;16.63;4.88;;;;;;;6.33;57.77;102610.09;5077331;28;20036;-71
2023/05/25 02:39:25;;;;;;;9.52;3.70;;;;;;;6.36;57.75;102615.28;5076149;27;20066;-72
2023/05/25 02:41:53;;;;;;;11.60;4.82;;;;;;;6.37;57.52;102622.22;5080673;28;20040;-71
2023/05/25 02:44:19;;;;;;;9.55;4.38;;;;;;;6.41;57.50;102613.56;5067946;28;20416;-71
2023/05/25 02:46:47;;;;;;;12.05;4.40;;;;;;;6.38;57.36;102623.97;5084720;27;20027;-72
2023/05/25 02:49:15;;;;;;;10.35;4.90;;;;;;;6.40;57.66;102617.06;5086031;28;20036;-72
2023/05/25 02:51:41;;;;;;;9.75;3.95;;;;;;;6.40;57.18;102626.56;5075553;28;20020;-72
2023/05/25 02:54:07;;;;;;;10.52;4.53;;;;;;;6.36;57.40;102620.47;5062981;28;20148;-71
2023/05/25 02:56:35;;;;;;;10.55;4.90;;;;;;;6.34;57.18;102626.53;5106471;27;20023;-71
2023/05/25 02:59:02;;;;;;;8.10;3.85;;;;;;;6.34;57.13;102619.59;5078688;28;20044;-72
2023/05/25 03:01:33;;;;;;;14.93;4.70;;;;;;;6.38;57.62;102628.28;5077150;27;20127;-72
2023/05/25 03:03:59;;;;;;;10.35;4.47;;;;;;;6.39;57.69;102633.47;5062570;28;20032;-71
2023/05/25 03:06:26;;;;;;;13.18;5.43;;;;;;;6.38;57.62;102636.94;5077744;27;20131;-76
2023/05/25 03:08:55;;;;;;;9.43;4.70;;;;;;;6.36;57.54;102641.25;5084917;27;20088;-71
2023/05/25 03:11:21;;;;;;;12.32;4.85;;;;;;;6.31;57.69;102637.78;5077753;28;20237;-69
2023/05/25 03:13:50;;;;;;;10.63;4.10;;;;;;;6.41;57.28;102644.75;5083418;27;20040;-69
2023/05/25 03:16:18;;;;;;;14.90;4.93;;;;;;;6.36;57.52;102641.25;5076082;28;20046;-71
2023/05/25 03:18:48;;;;;;;7.53;3.63;;;;;;;6.37;57.49;102645.59;5074337;27;20150;-70
2023/05/25 03:21:13;;;;;;;7.55;3.33;;;;;;;6.39;57.25;102649.06;5078316;28;20515;-70
2023/05/25 03:23:39;;;;;;;7.88;3.97;;;;;;;6.39;57.36;102648.19;5078755;28;20036;-74
2023/05/25 03:26:07;;;;;;;12.98;4.18;;;;;;;6.39;57.43;102650.78;5111303;27;20496;-71
2023/05/25 03:28:32;;;;;;;7.45;3.33;;;;;;;6.43;57.42;102660.34;5075102;28;20048;-72
2023/05/25 03:30:58;;;;;;;16.05;4.53;;;;;;;6.40;57.58;102657.75;5076582;28;20081;-74
2023/05/25 03:33:24;;;;;;;9.52;4.07;;;;;;;6.43;57.41;102643.03;5073541;28;20288;-73
2023/05/25 03:35:49;;;;;;;11.70;4.13;;;;;;;6.42;57.41;102638.72;5074448;28;20139;-72
2023/05/25 03:38:15;;;;;;;6.63;2.88;;;;;;;6.47;57.36;102644.78;5067745;28;20948;-72
2023/05/25 03:40:41;;;;;;;7.57;4.07;;;;;;;6.48;57.74;102640.44;5060700;28;20028;-72
2023/05/25 03:43:08;;;;;;;6.63;2.90;;;;;;;6.56;57.37;102649.16;5075034;27;20043;-72
2023/05/25 03:45:34;;;;;;;7.38;3.03;;;;;;;6.58;57.35;102646.59;5105605;27;20050;-72
2023/05/25 03:47:59;;;;;;;12.90;3.88;;;;;;;6.64;57.46;102646.59;5078071;28;20067;-70
2023/05/25 03:50:25;;;;;;;12.02;2.92;;;;;;;6.65;57.55;102644.00;5067426;28;20028;-69
2023/05/25 03:52:50;;;;;;;8.10;3.30;;;;;;;6.69;57.37;102652.72;5082117;28;20044;-71
2023/05/25 03:55:16;;;;;;;10.65;3.03;;;;;;;6.76;57.56;102661.41;5080690;28;20031;-70
2023/05/25 03:57:45;;;;;;;12.73;3.65;;;;;;;6.79;57.16;102651.00;5062012;28;20046;-73
2023/05/25 04:00:11;;;;;;;8.38;3.42;;;;;;;6.79;57.62;102666.59;5083114;28;20039;-72
2023/05/25 04:02:42;;;;;;;10.85;3.20;;;;;;;6.84;57.27;102664.88;5074278;27;20039;-71
2023/05/25 04:05:07;;;;;;;8.73;4.00;;;;;;;6.94;57.29;102669.25;5071378;28;20032;-74
2023/05/25 04:07:35;;;;;;;8.45;3.53;;;;;;;7.04;57.05;102667.56;5075152;27;20172;-72
2023/05/25 04:10:01;;;;;;;17.33;4.95;;;;;;;7.08;57.11;102669.31;5088952;28;20028;-72
2023/05/25 04:12:29;;;;;;;13.15;4.22;;;;;;;7.18;57.03;102670.22;5077811;28;20100;-72
2023/05/25 04:14:55;;;;;;;5.88;2.95;;;;;;;7.22;57.23;102666.75;5063379;28;20118;-71
2023/05/25 04:17:24;;;;;;;6.35;3.30;;;;;;;7.35;56.96;102672.84;5076114;28;20130;-71
2023/05/25 04:19:50;;;;;;;13.48;3.80;;;;;;;7.44;57.33;102675.47;5076488;28;20286;-71
2023/05/25 04:22:17;;;;;;;11.18;4.22;;;;;;;7.57;57.12;102669.47;5063822;27;20130;-72
2023/05/25 04:24:44;;;;;;;22.02;5.28;;;;;;;7.62;57.37;102678.13;5077360;28;20419;-71
2023/05/25 04:27:10;;;;;;;9.52;3.25;;;;;;;7.78;57.35;102673.84;5086483;28;20023;-68
2023/05/25 04:29:37;;;;;;;12.80;4.05;;;;;;;7.88;57.60;102679.91;5110552;27;20038;-72
2023/05/25 04:32:36;;;;;;;12.32;3.20;;;;;;;7.99;57.49;102667.75;5044275;27;20933;-76
2023/05/25 04:35:15;;;;;;;14.82;3.13;;;;;;;8.14;57.37;102679.91;5081073;27;20428;-75
2023/05/25 04:37:45;;;;;;;13.07;3.35;;;;;;;8.17;57.30;102676.41;5085484;28;20036;-73
2023/05/25 04:40:15;;;;;;;10.45;3.08;;;;;;;8.28;56.76;102675.53;5086674;28;20538;-71
2023/05/25 04:42:41;;;;;;;6.50;1.90;;;;;;;8.42;56.52;102682.44;5077565;28;20044;-73
2023/05/25 04:45:09;;;;;;;8.73;2.33;;;;;;;8.40;56.28;102682.44;5084098;28;20035;-73
2023/05/25 04:47:36;;;;;;;8.23;2.75;;;;;;;8.66;55.84;102678.91;5074903;27;20040;-73
2023/05/25 04:50:03;;;;;;;12.82;2.80;;;;;;;8.41;56.07;102686.81;5080965;28;20079;-75
2023/05/25 04:52:29;;;;;;;13.93;2.72;;;;;;;8.79;55.87;102685.84;5081630;27;20125;-73
2023/05/25 04:54:54;;;;;;;16.05;2.45;;;;;;;9.54;53.73;102692.41;5108678;27;20039;-72
2023/05/25 04:57:20;;;;;;;15.07;2.85;;;;;;;11.09;49.01;102693.56;5069477;27;20043;-74
2023/05/25 04:59:47;;;;;;;17.80;2.67;;;;;;;11.66;47.46;102700.59;5086382;27;20039;-72
2023/05/25 05:02:12;;;;;;;11.75;2.58;;;;;;;12.61;44.51;102705.97;5082180;27;20063;-71
2023/05/25 05:04:40;;;;;;;11.68;2.53;;;;;;;12.47;43.89;102704.50;5060727;27;20039;-73
2023/05/25 05:07:12;;;;;;;12.10;2.17;;;;;;;13.47;42.39;102705.06;5072672;28;20122;-72
2023/05/25 05:09:37;;;;;;;18.85;3.30;;;;;;;14.00;40.55;102704.66;5080074;27;20183;-73
2023/05/25 05:12:05;;;;;;;19.48;3.03;;;;;;;14.36;40.23;102705.47;5064068;28;20209;-76
2023/05/25 05:14:35;;;;;;;11.10;2.07;;;;;;;14.39;38.58;102701.03;5076937;28;20091;-72
2023/05/25 05:17:02;;;;;;;20.95;3.38;;;;;;;15.35;38.38;102702.69;5089128;27;20521;-79
2023/05/25 05:19:27;;;;;;;18.10;3.42;;;;;;;15.29;37.53;102694.97;5081429;28;20043;-76
2023/05/25 05:21:55;;;;;;;13.77;2.15;;;;;;;15.52;36.72;102700.34;5094852;27;20162;-76
2023/05/25 05:24:24;;;;;;;13.88;2.90;;;;;;;16.06;35.97;102703.88;5088586;27;20058;-79
2023/05/25 05:26:51;;;;;;;8.90;3.00;;;;;;;15.69;35.95;102698.97;5097111;27;20693;-79
2023/05/25 05:29:16;;;;;;;16.95;2.10;;;;;;;15.52;35.93;102703.00;5060694;27;20036;-78
2023/05/25 05:31:42;;;;;;;15.23;1.92;;;;;;;16.52;33.65;102696.13;5048793;28;20119;-76
2023/05/25 05:34:10;;;;;;;12.02;2.55;;;;;;;16.64;33.62;102706.22;5097783;27;20064;-77
2023/05/25 05:36:36;;;;;;;18.13;2.40;;;;;;;16.98;34.07;102705.03;5081150;27;20039;-72
2023/05/25 05:39:02;;;;;;;19.00;2.28;;;;;;;17.67;32.49;102696.13;5042574;28;20064;-73
2023/05/25 05:41:29;;;;;;;16.85;2.55;;;;;;;17.64;33.39;102700.63;5062849;28;20047;-75
2023/05/25 05:43:57;;;;;;;17.20;2.30;;;;;;;17.58;31.42;102710.59;5053957;28;20130;-72
2023/05/25 05:46:23;;;;;;;20.25;2.53;;;;;;;17.25;31.68;102708.38;5050657;28;20023;-71
2023/05/25 05:48:49;;;;;;;12.63;1.75;;;;;;;17.21;31.19;102710.25;5058043;28;20047;-72
2023/05/25 05:51:15;;;;;;;19.27;2.28;;;;;;;17.21;31.56;102712.91;5056925;28;20040;-71
2023/05/25 05:53:42;;;;;;;16.13;2.72;;;;;;;17.00;32.06;102709.31;5055592;28;20035;-73
2023/05/25 05:56:16;;;;;;;17.73;2.13;;;;;;;17.39;31.81;102710.47;5053983;28;20515;-73
2023/05/25 05:58:47;;;;;;;12.70;2.53;;;;;;;17.54;30.75;102712.50;5089632;27;20094;-71
2023/05/25 06:01:15;;;;;;;17.30;2.53;;;;;;;17.54;30.40;102715.16;5074180;27;20028;-73
2023/05/25 06:03:44;;;;;;;13.75;1.63;;;;;;;18.85;29.76;102722.75;5061236;28;20036;-71
2023/05/25 06:06:10;;;;;;;11.63;1.88;;;;;;;18.29;29.83;102724.38;5056100;28;20433;-73
2023/05/25 06:08:37;;;;;;;18.02;2.90;;;;;;;18.04;29.79;102724.56;5062337;28;20090;-72
2023/05/25 06:11:03;;;;;;;11.60;1.98;;;;;;;17.99;30.33;102730.03;5058082;28;20024;-72
2023/05/25 06:13:28;;;;;;;15.23;2.50;;;;;;;18.99;28.56;102733.63;5057768;28;20116;-72
2023/05/25 06:15:54;;;;;;;9.48;1.77;;;;;;;19.18;27.63;102738.91;5059413;28;20735;-73
2023/05/25 06:18:24;;;;;;;17.73;2.20;;;;;;;19.35;27.87;102739.91;5060093;28;20032;-78
2023/05/25 06:20:53;;;;;;;11.93;1.73;;;;;;;19.17;28.06;102745.16;5062052;28;20036;-75
2023/05/25 06:23:19;;;;;;;14.35;1.95;;;;;;;19.18;27.30;102748.66;5057640;28;20043;-74
2023/05/25 06:25:47;;;;;;;10.70;1.65;;;;;;;20.02;26.27;102749.88;5040877;28;20507;-73
2023/05/25 06:28:12;;;;;;;10.10;1.80;;;;;;;19.45;26.11;102749.13;5064850;28;20032;-71
2023/05/25 06:30:38;;;;;;;14.90;2.33;;;;;;;19.63;26.32;102748.25;5058732;28;20315;-78
2023/05/25 06:33:04;;;;;;;18.08;1.73;;;;;;;18.58;28.46;102760.16;5064904;28;20119;-76
2023/05/25 06:35:30;;;;;;;11.57;2.42;;;;;;;19.12;27.47;102757.75;5060805;28;20495;-77
2023/05/25 06:37:56;;;;;;;15.45;2.05;;;;;;;19.53;26.86;102762.03;5040375;28;20040;-75
2023/05/25 06:40:23;;;;;;;12.80;2.90;;;;;;;19.61;26.77;102762.53;5051723;28;20424;-77
2023/05/25 06:42:49;;;;;;;11.80;2.05;;;;;;;18.21;28.48;102771.50;5042023;28;20139;-77
2023/05/25 06:45:33;;;;;;;15.13;2.50;;;;;;;17.15;30.40;102770.41;5061978;28;20531;-74
2023/05/25 06:47:58;;;;;;;26.52;3.00;;;;;;;15.29;32.23;102768.72;5057555;28;20060;-75
2023/05/25 06:50:24;;;;;;;21.20;2.38;;;;;;;13.72;34.84;102781.56;5062799;28;20548;-74
2023/05/25 06:52:50;;;;;;;14.68;2.97;;;;;;;13.06;36.25;102776.84;5054152;27;20491;-73
2023/05/25 06:55:15;;;;;;;14.40;2.33;;;;;;;12.57;37.19;102783.84;5050273;28;20036;-70
2023/05/25 06:57:42;;;;;;;21.85;3.22;;;;;;;12.06;38.13;102781.22;5060853;28;20036;-71
2023/05/25 07:00:11;;;;;;;14.13;1.88;;;;;;;12.23;37.97;102781.81;5055056;28;20071;-73
2023/05/25 07:02:38;;;;;;;14.45;1.92;;;;;;;11.71;39.32;102790.47;5049843;28;20143;-74
2023/05/25 07:05:07;;;;;;;15.15;2.63;;;;;;;11.71;39.45;102790.47;5054018;28;20047;-72
2023/05/25 07:07:35;;;;;;;17.88;2.25;;;;;;;11.37;40.17;102796.16;5054431;28;20123;-71
2023/05/25 07:10:04;;;;;;;21.08;3.53;;;;;;;11.16;41.55;102796.44;5057039;28;20032;-71
2023/05/25 07:12:30;;;;;;;24.33;2.47;;;;;;;11.16;41.33;102805.13;5085438;27;20036;-75
2023/05/25 07:14:59;;;;;;;20.05;2.53;;;;;;;11.23;42.15;102813.78;5063912;28;20914;-72
2023/05/25 07:17:25;;;;;;;20.88;3.47;;;;;;;11.44;42.35;102818.78;5038467;27;20032;-72
2023/05/25 07:19:51;;;;;;;24.42;2.40;;;;;;;14.65;36.30;102811.72;5068631;27;20035;-73
2023/05/25 07:22:17;;;;;;;13.52;2.33;;;;;;;17.00;32.02;102814.09;5050802;28;20033;-72
2023/05/25 07:24:44;;;;;;;26.13;3.05;;;;;;;17.42;30.05;102808.13;5055735;28;20034;-72
2023/05/25 07:27:13;;;;;;;12.80;2.00;;;;;;;15.38;32.81;102815.88;5054833;28;20170;-73
2023/05/25 07:29:39;;;;;;;13.07;2.22;;;;;;;13.45;36.99;102832.03;5063176;28;20123;-72
2023/05/25 07:32:06;;;;;;;15.63;2.65;;;;;;;12.83;38.42;102838.53;5058298;28;20530;-73
2023/05/25 07:34:35;;;;;;;19.35;2.70;;;;;;;12.65;38.88;102831.81;5058092;28;20059;-75
2023/05/25 07:37:03;;;;;;;17.52;2.55;;;;;;;12.45;39.25;102832.16;5044451;28;20036;-75
2023/05/25 07:39:28;;;;;;;19.00;2.22;;;;;;;12.74;37.68;102830.81;5053520;28;20043;-75
2023/05/25 07:41:57;;;;;;;21.60;3.80;;;;;;;12.10;38.94;102835.34;5059159;28;20564;-72
2023/05/25 07:44:23;;;;;;;16.73;3.25;;;;;;;11.87;40.01;102838.31;5061635;27;20246;-74
2023/05/25 07:46:50;;;;;;;15.27;2.58;;;;;;;11.46;41.45;102835.34;5053161;28;20114;-72
2023/05/25 07:49:16;;;;;;;15.63;2.45;;;;;;;11.43;41.27;102837.97;5053186;27;20044;-74
2023/05/25 07:51:45;;;;;;;21.35;3.88;;;;;;;11.40;41.55;102842.41;5057508;28;20043;-73
2023/05/25 07:54:13;;;;;;;17.08;2.38;;;;;;;11.26;41.24;102837.28;5052655;28;20032;-74
2023/05/25 07:56:38;;;;;;;18.75;2.63;;;;;;;11.37;41.19;102848.50;5053727;28;20056;-74
2023/05/25 07:59:05;;;;;;;19.33;2.92;;;;;;;13.30;38.13;102843.75;5054210;27;20032;-74
2023/05/25 08:01:30;;;;;;;21.73;2.50;;;;;;;15.50;33.13;102839.22;5056182;28;20081;-74
2023/05/25 08:03:56;;;;;;;25.70;2.47;;;;;;;14.34;34.26;102841.44;5051685;27;20159;-73
2023/05/25 08:06:22;;;;;;;24.15;3.60;;;;;;;13.88;35.92;102847.78;5052158;28;20059;-75
2023/05/25 08:08:48;;;;;;;27.10;2.78;;;;;;;13.15;36.50;102857.19;5056021;28;20106;-72
2023/05/25 08:11:22;;;;;;;14.77;2.80;;;;;;;12.69;37.02;102856.25;5054839;28;20028;-74
2023/05/25 08:13:47;;;;;;;21.02;3.70;;;;;;;12.60;37.19;102857.28;5075740;28;20718;-74
2023/05/25 08:16:15;;;;;;;21.25;2.75;;;;;;;12.77;37.17;102858.75;5100614;27;20031;-74
2023/05/25 08:18:42;;;;;;;17.55;3.03;;;;;;;12.60;36.43;102861.63;5063712;27;20044;-73
2023/05/25 08:21:08;;;;;;;14.98;3.00;;;;;;;12.74;36.87;102869.31;5055563;28;20028;-73
2023/05/25 08:23:33;;;;;;;18.08;3.08;;;;;;;13.66;35.12;102860.53;5045772;27;20481;-74
2023/05/25 08:25:59;;;;;;;11.43;2.33;;;;;;;14.06;34.90;102866.69;5051829;28;20031;-75
2023/05/25 08:28:24;;;;;;;21.92;3.08;;;;;;;13.69;34.74;102862.22;5052085;28;20033;-73
2023/05/25 08:30:50;;;;;;;17.02;2.10;;;;;;;13.71;35.16;102873.56;5050514;28;20542;-73
2023/05/25 08:33:15;;;;;;;16.30;2.90;;;;;;;13.65;35.39;102874.59;5050061;28;20641;-74
2023/05/25 08:35:41;;;;;;;9.90;2.05;;;;;;;15.26;32.79;102868.91;5053266;28;20551;-74
2023/05/25 08:38:08;;;;;;;12.10;2.33;;;;;;;15.49;32.05;102876.16;5055607;28;20799;-73
2023/05/25 08:40:33;;;;;;;15.80;2.63;;;;;;;13.85;34.30;102881.16;5056179;28;20093;-73
2023/05/25 08:42:59;;;;;;;15.65;2.65;;;;;;;13.53;35.02;102880.91;5062462;28;20116;-72
2023/05/25 08:45:27;;;;;;;12.10;2.33;;;;;;;13.32;35.51;102884.00;5087237;27;20032;-71
2023/05/25 08:47:58;;;;;;;14.23;2.42;;;;;;;14.23;34.91;102888.19;5056230;28;20047;-71
2023/05/25 08:50:26;;;;;;;12.85;2.22;;;;;;;14.75;33.34;102879.03;5055545;28;20191;-73
2023/05/25 08:52:54;;;;;;;15.80;1.88;;;;;;;15.23;32.66;102883.03;5057193;28;20039;-75
2023/05/25 08:55:22;;;;;;;20.45;2.70;;;;;;;15.41;31.28;102879.00;5069420;27;20076;-74
2023/05/25 08:57:57;;;;;;;9.90;2.13;;;;;;;15.51;31.09;102891.03;5038996;28;20154;-73
2023/05/25 09:00:33;;;;;;;14.10;1.65;;;;;;;14.60;32.14;102879.41;5087062;27;20032;-74
2023/05/25 09:03:25;;;;;;;17.02;3.05;;;;;;;14.03;34.14;102890.38;5054965;28;20521;-73
2023/05/25 09:05:51;;;;;;;19.10;3.00;;;;;;;13.05;36.41;102891.50;5049291;28;20040;-73
2023/05/25 09:08:16;;;;;;;25.42;3.03;;;;;;;12.30;37.71;102895.34;5054151;28;20353;-73
2023/05/25 09:10:42;;;;;;;12.57;1.95;;;;;;;12.98;36.56;102891.63;5054195;28;20073;-72
2023/05/25 09:13:08;;;;;;;21.92;2.20;;;;;;;13.39;35.24;102896.09;5053659;27;20033;-73
2023/05/25 09:15:34;;;;;;;14.55;3.28;;;;;;;13.20;36.00;102897.34;5055620;28;20078;-72
2023/05/25 09:18:02;;;;;;;17.45;2.88;;;;;;;14.36;33.59;102886.97;5053561;28;20032;-72
2023/05/25 09:20:32;;;;;;;17.40;2.20;;;;;;;14.02;33.86;102899.19;5054094;28;20036;-73
2023/05/25 09:22:58;;;;;;;12.43;1.67;;;;;;;13.30;34.07;102896.28;5043377;28;20036;-72
2023/05/25 09:25:26;;;;;;;17.52;2.70;;;;;;;14.38;33.78;102901.88;5056153;28;20388;-72
2023/05/25 09:27:57;;;;;;;13.38;2.75;;;;;;;14.50;33.94;102898.94;5053388;28;20071;-71
2023/05/25 09:30:26;;;;;;;15.57;1.90;;;;;;;13.60;35.17;102904.47;5053368;28;20033;-73
2023/05/25 09:32:52;;;;;;;21.30;2.53;;;;;;;13.83;35.01;102909.22;5060546;28;20054;-72
2023/05/25 09:35:18;;;;;;;22.20;2.78;;;;;;;13.78;35.61;102909.31;5056230;28;20035;-73
2023/05/25 09:37:45;;;;;;;12.23;2.15;;;;;;;13.46;36.75;102915.22;5034938;27;20538;-74
2023/05/25 09:40:10;;;;;;;14.82;2.15;;;;;;;13.14;37.14;102907.94;5065448;28;20112;-74
2023/05/25 09:42:37;;;;;;;15.60;2.55;;;;;;;13.05;36.84;102907.25;5053353;28;20516;-74
2023/05/25 09:45:06;;;;;;;17.88;2.58;;;;;;;13.71;36.04;102910.34;5066292;28;20032;-74
2023/05/25 09:47:31;;;;;;;22.63;2.85;;;;;;;13.36;36.60;102914.56;5051873;28;20105;-73
2023/05/25 09:49:57;;;;;;;20.25;2.78;;;;;;;12.98;37.06;102915.25;5055836;28;20056;-74
2023/05/25 09:52:23;;;;;;;21.30;3.95;;;;;;;12.99;36.36;102917.84;5084501;27;20377;-74
2023/05/25 09:54:50;;;;;;;32.15;4.32;;;;;;;12.59;36.43;102918.47;5056560;28;20401;-75
2023/05/25 09:57:18;;;;;;;16.52;2.33;;;;;;;12.41;36.84;102924.03;5053527;28;20036;-75
2023/05/25 09:59:46;;;;;;;22.15;6.20;;;;;;;12.45;37.37;102920.47;5057388;28;20507;-75
2023/05/25 10:02:13;;;;;;;16.13;2.42;;;;;;;12.93;36.89;102919.72;5052263;28;20653;-75
2023/05/25 10:04:38;;;;;;;9.60;1.95;;;;;;;13.31;35.72;102914.59;5086386;27;20044;-74
2023/05/25 10:07:04;;;;;;;18.88;2.90;;;;;;;13.87;36.67;102924.03;5068888;28;20038;-71
2023/05/25 10:09:31;;;;;;;16.63;2.50;;;;;;;13.86;35.64;102927.59;5073355;27;20126;-73
2023/05/25 10:11:58;;;;;;;18.00;2.78;;;;;;;13.52;35.34;102931.72;5063893;28;20108;-77
2023/05/25 10:14:28;;;;;;;13.13;2.88;;;;;;;12.65;35.90;102936.75;5096902;27;20043;-74
2023/05/25 10:16:58;;;;;;;17.20;2.38;;;;;;;13.01;36.26;102930.94;5073886;28;20156;-72
2023/05/25 10:19:40;;;;;;;13.38;3.28;;;;;;;12.73;35.44;102935.78;5061548;27;21284;-72
2023/05/25 10:22:18;;;;;;;10.60;2.10;;;;;;;12.69;36.80;102941.09;5074822;28;20044;-72
2023/05/25 10:24:58;;;;;;;15.60;2.28;;;;;;;13.78;36.33;102940.00;5073179;28;20131;-71
2023/05/25 10:27:33;;;;;;;16.83;2.85;;;;;;;14.68;33.65;102929.22;5070358;28;21254;-71
2023/05/25 10:30:00;;;;;;;18.25;2.95;;;;;;;14.17;33.76;102929.53;5075021;28;20028;-75
2023/05/25 10:32:28;;;;;;;13.90;2.90;;;;;;;14.08;33.72;102943.75;5070487;27;20140;-69
2023/05/25 10:34:56;;;;;;;20.80;2.88;;;;;;;13.98;34.39;102936.97;5071022;28;20032;-71
2023/05/25 10:37:22;;;;;;;20.73;2.15;;;;;;;14.55;33.65;102928.66;5072622;28;20035;-70
2023/05/25 10:39:49;;;;;;;20.42;2.53;;;;;;;14.88;33.23;102926.06;5073534;28;20028;-71
2023/05/25 10:42:20;;;;;;;12.63;2.72;;;;;;;13.75;35.43;102930.44;5072779;28;20854;-69
2023/05/25 10:44:46;;;;;;;21.02;2.85;;;;;;;13.88;34.86;102939.78;5076352;28;20090;-72
2023/05/25 10:47:12;;;;;;;15.77;2.95;;;;;;;13.18;35.55;102941.13;5075289;27;20310;-71
2023/05/25 10:49:56;;;;;;;13.40;3.15;;;;;;;13.51;35.96;102943.13;5070599;28;20117;-71
2023/05/25 10:52:33;;;;;;;24.42;3.13;;;;;;;13.50;35.23;102941.41;5070689;27;20104;-70
2023/05/25 10:55:05;;;;;;;20.23;3.63;;;;;;;13.56;35.52;102944.78;5073844;28;20055;-69
2023/05/25 10:57:31;;;;;;;15.85;2.95;;;;;;;13.47;35.21;102941.47;5078766;28;20031;-71
2023/05/25 11:00:05;;;;;;;20.33;3.05;;;;;;;13.55;34.54;102943.06;5073138;28;20560;-70
2023/05/25 11:02:52;;;;;;;14.63;2.40;;;;;;;14.17;33.96;102943.56;5071386;27;20189;-71
2023/05/25 11:05:26;;;;;;;13.45;3.08;;;;;;;14.81;32.67;102935.03;5072385;28;20040;-70
2023/05/25 11:07:52;;;;;;;21.13;3.10;;;;;;;15.58;32.08;102931.25;5073482;28;20044;-71
2023/05/25 11:10:42;;;;;;;20.50;2.85;;;;;;;15.75;31.14;102928.09;5073130;28;20654;-69
2023/05/25 11:13:20;;;;;;;14.13;2.60;;;;;;;15.84;30.95;102924.34;5071830;28;20055;-70
2023/05/25 11:16:06;;;;;;;15.68;2.63;;;;;;;15.70;30.56;102924.75;5070955;28;20127;-71
2023/05/25 11:18:42;;;;;;;22.73;3.15;;;;;;;14.68;32.17;102939.75;5088718;27;20036;-69
2023/05/25 11:21:26;;;;;;;12.05;2.40;;;;;;;14.58;32.17;102936.47;5076249;28;20040;-70
2023/05/25 11:23:58;;;;;;;19.00;3.33;;;;;;;14.88;31.55;102933.97;5070501;28;20044;-70
2023/05/25 11:26:33;;;;;;;19.38;2.58;;;;;;;15.21;31.97;102934.00;5072371;28;20728;-71